TimeEDT,TemperatureF,Dew PointF,Humidity,Sea Level PressureIn,VisibilityMPH,Wind Direction,Wind SpeedMPH,Gust SpeedMPH,PrecipitationIn,Events,Conditions,WindDirDegrees,DateUTC
12:51 AM,61.0,53.1,75,30.23,10.0,Calm,Calm,-,N/A,,Overcast,0,2012-10-26 04:51:00
1:51 AM,60.1,54.0,80,30.22,10.0,Calm,Calm,-,N/A,,Overcast,0,2012-10-26 05:51:00
2:51 AM,60.1,54.0,80,30.21,10.0,Calm,Calm,-,N/A,,Overcast,0,2012-10-26 06:51:00
3:51 AM,61.0,54.0,78,30.21,10.0,Calm,Calm,-,N/A,,Overcast,0,2012-10-26 07:51:00
4:51 AM,61.0,55.0,81,30.22,10.0,Calm,Calm,-,N/A,,Overcast,0,2012-10-26 08:51:00
5:51 AM,60.1,54.0,80,30.22,10.0,North,5.8,-,N/A,,Overcast,10,2012-10-26 09:51:00
6:16 AM,60.8,53.6,77,30.22,10.0,NE,4.6,-,N/A,,Overcast,40,2012-10-26 10:16:00
6:51 AM,60.1,54.0,80,30.22,10.0,NNE,3.5,-,N/A,,Overcast,20,2012-10-26 10:51:00
6:58 AM,60.8,53.6,77,30.22,10.0,North,3.5,-,N/A,,Overcast,10,2012-10-26 10:58:00
7:51 AM,60.1,55.0,83,30.22,10.0,NNE,3.5,-,N/A,,Overcast,30,2012-10-26 11:51:00
8:51 AM,61.0,54.0,78,30.23,10.0,Calm,Calm,-,N/A,,Overcast,0,2012-10-26 12:51:00
9:51 AM,62.1,55.0,78,30.22,10.0,North,5.8,-,N/A,,Overcast,10,2012-10-26 13:51:00
10:51 AM,63.0,55.0,75,30.23,10.0,Calm,Calm,-,N/A,,Overcast,0,2012-10-26 14:51:00
11:51 AM,64.0,55.0,73,30.22,10.0,Calm,Calm,-,N/A,,Overcast,0,2012-10-26 15:51:00
12:51 PM,66.0,55.9,70,30.20,10.0,North,3.5,-,N/A,,Overcast,360,2012-10-26 16:51:00
12:58 PM,66.2,55.4,68,30.19,10.0,Variable,4.6,-,N/A,,Overcast,0,2012-10-26 16:58:00
1:38 PM,66.2,55.4,68,30.18,10.0,East,4.6,-,N/A,,Overcast,80,2012-10-26 17:38:00
1:51 PM,66.9,55.0,66,30.17,10.0,ENE,4.6,-,N/A,,Overcast,60,2012-10-26 17:51:00
2:11 PM,66.2,55.4,68,30.15,10.0,East,4.6,-,N/A,,Overcast,80,2012-10-26 18:11:00
2:51 PM,66.0,55.0,68,30.14,10.0,SE,5.8,-,N/A,,Overcast,140,2012-10-26 18:51:00
3:51 PM,66.0,55.0,68,30.14,10.0,SSE,4.6,-,N/A,,Overcast,150,2012-10-26 19:51:00
3:58 PM,66.2,55.4,68,30.14,10.0,SE,3.5,-,N/A,,Overcast,130,2012-10-26 19:58:00
4:51 PM,66.0,55.0,68,30.13,10.0,SE,3.5,-,N/A,,Overcast,130,2012-10-26 20:51:00
4:55 PM,66.2,55.4,68,30.13,10.0,SE,5.8,-,N/A,,Overcast,140,2012-10-26 20:55:00
5:51 PM,64.9,55.9,73,30.13,10.0,ESE,3.5,-,N/A,,Overcast,120,2012-10-26 21:51:00
6:51 PM,64.9,55.9,73,30.13,10.0,SE,4.6,-,N/A,,Overcast,130,2012-10-26 22:51:00
7:51 PM,64.0,55.9,75,30.14,10.0,SE,3.5,-,N/A,,Overcast,140,2012-10-26 23:51:00
8:51 PM,64.0,55.9,75,30.13,10.0,Calm,Calm,-,N/A,,Overcast,0,2012-10-27 00:51:00
9:51 PM,64.0,57.0,78,30.13,10.0,SE,3.5,-,N/A,,Overcast,140,2012-10-27 01:51:00
10:51 PM,64.0,55.9,75,30.12,10.0,Calm,Calm,-,N/A,,Overcast,0,2012-10-27 02:51:00
11:51 PM,64.0,55.9,75,30.11,10.0,Calm,Calm,-,N/A,,Overcast,0,2012-10-27 03:51:00